首页
METAR-TAF:

METAR-TAF

机场 :

华盛顿, 宾夕法尼亚州, 美国

纬度: 40-08N, 经度: 080-17W, 海拔: 361米

当前天气观测

该预报发布于41分钟前的07:56 UTC
风速13节,风向西,有时为24节阵风
温度 12°C
湿度 94%
气压 1007 hPa
能見度: 16.1公里
少量云层高于1100英尺
多云层高于2200英尺
阴天层高于3100英尺

METAR: KAFJ 100756Z AUTO 27013G24KT 10SM FEW011 BKN022 OVC031 12/11 A2973 RMK AO2 PK WND 27029/0714 SLP066 P0004 T01220106 PWINO $

时间: 03:37 (08:37 UTC)


TAF: 丢失

超过4000个机场的气象观测和天气预报(METAR&TAF报告)。

可查询的气象台以黄色和红色小点在地图上表示。

将鼠标移到小点上方,可查看气象台名称。

然后点击查看天气观测和预报。

如需切换地图:点击带黑十字的绿色按钮放大地图;点击带横线的绿色按钮缩小地图;或者点击绿色箭头查看邻近地区的地图。


METAR-TAF: